Aérodrome :
LOGIN :

S'inscrire | Disclaimer

   EN    FR    IT 

 










Légende :    VFR   VFR Marginal   IFR   IFR Intensif   IFR Très Intensif
Visi : 
Plafond : 
>= 8 km
>= 3000ft
5 à 8 km
1000 à 3000 ft
1500m à 5 km
500 à 1000 ft
800 à 1500m
200 à 500 ft
< 800m
< 200 ft
Symboles :   Orages  Brouillard  Fortes neiges  Fortes précipitations  Vent > 20 kt
SIGMETs :   Divers  Orages  Givrage  Turbulence  Onde Orograph.  Cendres Volcan.







- Altitude de l'aérodrome : 288 ft
- Code IATA : BZZ


EGVN - RAF Brize Norton

DERNIER METAR :
  • 182150Z 00000KT 0300 -DZ OVC001 12/12 Q1009 RED NOSIG

METARs EXPIRÉS :
  • 182050Z 00000KT 0300 FG OVC001 12/12 Q1009 NOSIG
  • 181950Z 00000KT 0400 FG OVC001 12/12 Q1009 NOSIG

TAF TAF EGVN
Valide du 18 à 21h jusqu'au 19 à 21h UTC


181946Z 1821/1921 13003KT 0600 FG BKN001
PROB30
TEMPO 1821/1824 1200 -DZ BR BKN004
BECMG 1900/1903 2000 BR SCT003
PROB40 1903/1908 0600 FG BKN001
BECMG 1908/1911 6000 -RADZ BKN007
TEMPO 1911/1915 3000 RADZ BKN004
BECMG 1913/1916 9999 NSW FEW030
BECMG 1919/1921 15015KT BKN012
Pas de NOTAMs connus pour ce terrain.



MET'MAP, la Météo Aéronautique d'un coup d'oeil ! - Copyright ORBIFLY Décembre 2007 - Disclaimer

ORBIFLY MET'MAP TEAM :

Programmation & Développement : Alexandra Zaïnal
Conception & Développement : Baudouin d'Aumeries
Co-Programmation & Développement : Marc-Olivier Méhu
Soutien technique & logistique : Manuel Goepfert

Contact : metmap@orbifly.com




SOURCES & CREDITS :

   NOAA